Time;durP1;ratioP1;P1;durP2;ratioP2;P2;SDS_P1;SDS_P2;PMS_P1;PMS_P2;Temp;Humidity;BMP_temperature;BMP_pressure;BME280_temperature;BME280_humidity;BME280_pressure;Samples;Min_cycle;Max_cycle;Signal;HPM_P1;HPM_P2
2021/08/31 06:53:23;;;;;;;31.00;22.77;;;17.50;98.30;;;;;;4043674;29;20489;-81
2021/08/31 06:55:28;;;;;;;25.63;20.27;;;17.50;98.30;;;;;;4041361;29;20480;-81
2021/08/31 06:57:32;;;;;;;34.60;25.53;;;17.60;98.30;;;;;;4064264;29;20495;-81
2021/08/31 06:59:35;;;;;;;24.90;16.80;;;17.70;98.30;;;;;;4068416;29;20491;-82
2021/08/31 07:01:40;;;;;;;31.83;21.90;;;17.80;98.30;;;;;;4072676;29;20492;-81
2021/08/31 07:03:44;;;;;;;16.43;14.67;;;17.90;98.30;;;;;;4081530;29;20511;-81
2021/08/31 07:05:52;;;;;;;25.33;20.70;;;18.00;98.30;;;;;;4071087;29;20486;-81
2021/08/31 07:07:55;;;;;;;21.50;14.70;;;18.00;98.30;;;;;;4075354;29;20486;-81
2021/08/31 07:10:00;;;;;;;20.07;13.63;;;18.00;98.30;;;;;;4078453;29;20498;-81
2021/08/31 07:12:03;;;;;;;20.47;14.87;;;18.00;98.30;;;;;;4069568;29;20503;-81
2021/08/31 07:14:06;;;;;;;14.80;12.33;;;18.10;98.30;;;;;;4068397;29;20566;-82
2021/08/31 07:16:09;;;;;;;16.13;11.67;;;18.20;98.30;;;;;;4068732;29;20487;-82
2021/08/31 07:18:12;;;;;;;16.90;12.33;;;18.30;98.30;;;;;;4072142;29;20474;-81
2021/08/31 07:20:15;;;;;;;12.33;9.90;;;18.40;98.30;;;;;;4074559;29;20583;-81
2021/08/31 07:22:20;;;;;;;13.60;9.83;;;18.50;98.30;;;;;;4080497;29;20467;-82
2021/08/31 07:24:23;;;;;;;13.60;10.43;;;18.60;98.30;;;;;;4084471;29;20470;-81
2021/08/31 07:26:28;;;;;;;12.30;9.10;;;18.60;98.30;;;;;;4068618;29;20495;-81
2021/08/31 07:28:32;;;;;;;13.70;10.07;;;18.80;98.30;;;;;;4069135;29;20464;-81
2021/08/31 07:30:55;;;;;;;12.87;9.40;;;18.90;98.30;;;;;;4068777;29;20843;-83
2021/08/31 07:32:58;;;;;;;10.87;8.90;;;19.00;98.30;;;;;;4078612;29;20501;-83
2021/08/31 07:35:01;;;;;;;10.13;8.57;;;19.10;98.30;;;;;;4077079;29;20502;-83
2021/08/31 07:37:04;;;;;;;10.87;8.90;;;19.10;98.30;;;;;;4075774;29;20691;-83
2021/08/31 07:39:07;;;;;;;11.37;8.63;;;19.20;98.30;;;;;;4076126;29;20502;-83
2021/08/31 07:41:10;;;;;;;9.87;8.87;;;19.30;98.30;;;;;;4077921;29;20482;-83
2021/08/31 07:43:15;;;;;;;14.30;8.23;;;19.40;98.30;;;;;;4076730;29;20558;-83
2021/08/31 07:45:18;;;;;;;9.70;7.90;;;19.50;98.30;;;;;;4076707;29;20475;-83
2021/08/31 07:47:21;;;;;;;12.17;8.73;;;19.60;98.30;;;;;;4067192;29;20495;-84
2021/08/31 07:49:36;;;;;;;12.10;8.60;;;19.60;98.30;;;;;;4067576;29;20562;-83
2021/08/31 07:51:39;;;;;;;10.70;8.37;;;19.60;98.30;;;;;;4077832;29;20629;-83
2021/08/31 07:53:42;;;;;;;9.97;8.07;;;19.70;98.30;;;;;;4076950;29;20648;-82
2021/08/31 07:55:45;;;;;;;10.73;8.23;;;19.90;98.30;;;;;;4069177;29;20470;-83
2021/08/31 07:57:48;;;;;;;9.47;7.43;;;19.90;98.30;;;;;;4078427;29;20513;-83
2021/08/31 07:59:53;;;;;;;10.93;7.60;;;20.00;98.30;;;;;;4084032;29;20505;-84
2021/08/31 08:01:56;;;;;;;8.87;7.27;;;20.10;98.30;;;;;;4077865;29;20470;-83
2021/08/31 08:04:00;;;;;;;9.47;8.50;;;20.20;98.30;;;;;;4078723;29;20883;-83
2021/08/31 08:06:03;;;;;;;70.87;53.57;;;20.30;98.30;;;;;;4081578;29;20481;-83
2021/08/31 08:08:06;;;;;;;32.33;25.57;;;20.40;98.30;;;;;;4081828;29;20481;-83
2021/08/31 08:10:10;;;;;;;45.83;36.17;;;20.40;98.30;;;;;;4083482;29;20476;-83
2021/08/31 08:12:13;;;;;;;15.83;12.83;;;20.50;98.30;;;;;;4083060;29;20572;-83
2021/08/31 08:14:16;;;;;;;13.20;10.27;;;20.60;98.30;;;;;;4082710;29;20829;-83
2021/08/31 08:16:21;;;;;;;14.87;8.97;;;20.80;98.30;;;;;;4079364;29;20489;-83
2021/08/31 08:18:24;;;;;;;10.77;8.30;;;20.80;98.30;;;;;;4077171;29;20582;-83
2021/08/31 08:20:28;;;;;;;8.53;7.67;;;20.80;98.30;;;;;;4084784;29;20549;-83
2021/08/31 08:22:31;;;;;;;8.97;7.90;;;20.90;98.30;;;;;;4073895;29;20560;-83
2021/08/31 08:24:34;;;;;;;9.97;8.43;;;21.10;98.30;;;;;;4072239;29;20482;-84
2021/08/31 08:26:38;;;;;;;43.80;34.93;;;21.10;98.30;;;;;;4076496;29;20493;-83
2021/08/31 08:28:41;;;;;;;26.33;22.37;;;21.20;98.30;;;;;;4084659;29;20470;-83
2021/08/31 08:30:44;;;;;;;54.27;40.50;;;21.40;98.30;;;;;;4080117;29;20462;-83
2021/08/31 08:32:48;;;;;;;15.63;12.33;;;21.50;98.30;;;;;;4078894;29;20578;-83
2021/08/31 08:34:52;;;;;;;11.13;9.77;;;21.70;98.30;;;;;;4070674;29;20477;-83
2021/08/31 08:36:59;;;;;;;13.83;8.43;;;21.70;98.30;;;;;;4070945;29;20570;-83
2021/08/31 08:39:03;;;;;;;8.93;7.03;;;21.90;98.30;;;;;;4082023;29;20482;-83
2021/08/31 08:41:06;;;;;;;8.23;6.87;;;21.80;98.30;;;;;;4070524;29;20577;-83
2021/08/31 08:43:09;;;;;;;8.07;6.50;;;21.90;98.30;;;;;;4076033;29;20855;-83
2021/08/31 08:45:12;;;;;;;9.47;7.43;;;22.00;98.30;;;;;;4080570;29;20476;-83
2021/08/31 08:47:16;;;;;;;7.33;6.27;;;22.20;98.30;;;;;;4074357;29;20519;-83
2021/08/31 08:49:20;;;;;;;7.53;6.80;;;22.30;98.30;;;;;;4078638;29;20501;-83
2021/08/31 08:51:23;;;;;;;8.33;6.50;;;22.40;98.30;;;;;;4070917;29;20498;-83
2021/08/31 08:53:27;;;;;;;7.47;6.63;;;22.50;98.30;;;;;;4073007;29;20498;-83
2021/08/31 08:55:30;;;;;;;8.70;6.23;;;22.60;98.30;;;;;;4082705;29;20488;-83
2021/08/31 08:57:33;;;;;;;7.50;6.37;;;22.70;98.30;;;;;;4070640;29;20505;-83
2021/08/31 08:59:38;;;;;;;9.33;6.93;;;22.80;98.30;;;;;;4077760;29;20991;-83
2021/08/31 09:01:47;;;;;;;5.93;5.33;;;22.70;98.30;;;;;;4079225;29;20497;-83
2021/08/31 09:03:55;;;;;;;10.43;6.20;;;22.60;98.30;;;;;;4070211;29;20466;-83
2021/08/31 09:06:12;;;;;;;9.17;7.07;;;22.70;98.30;;;;;;4070421;29;20514;-83
2021/08/31 09:08:15;;;;;;;7.20;6.37;;;22.90;98.30;;;;;;4080167;29;20553;-83
2021/08/31 09:10:22;;;;;;;6.80;6.10;;;23.10;98.30;;;;;;4070401;29;20874;-83
2021/08/31 09:12:30;;;;;;;20.13;18.13;;;23.30;98.30;;;;;;4075468;29;20493;-83
2021/08/31 09:14:38;;;;;;;17.13;12.30;;;23.30;98.30;;;;;;4087468;29;20508;-83
2021/08/31 09:16:42;;;;;;;22.60;17.57;;;23.40;98.30;;;;;;4076776;29;20550;-84
2021/08/31 09:18:50;;;;;;;8.73;7.70;;;23.50;98.30;;;;;;4086913;29;20468;-84
2021/08/31 09:21:04;;;;;;;9.30;7.20;;;23.60;98.30;;;;;;4090743;29;20478;-84
2021/08/31 09:23:10;;;;;;;7.63;6.50;;;23.70;98.30;;;;;;4090405;29;20541;-84
2021/08/31 09:25:13;;;;;;;8.77;5.90;;;23.90;98.30;;;;;;4082909;29;20481;-84
2021/08/31 09:27:32;;;;;;;8.70;6.40;;;24.00;98.10;;;;;;4090773;29;20494;-84
2021/08/31 09:29:40;;;;;;;6.83;6.13;;;24.10;98.30;;;;;;4086963;29;20984;-84
2021/08/31 09:31:46;;;;;;;8.37;6.70;;;24.30;98.20;;;;;;4081908;29;20512;-84
2021/08/31 09:33:52;;;;;;;6.70;6.10;;;24.50;98.30;;;;;;4077672;29;20925;-84
2021/08/31 09:36:20;;;;;;;7.70;6.30;;;24.70;97.70;;;;;;4077093;29;20962;-84
2021/08/31 09:38:25;;;;;;;8.07;6.40;;;24.90;97.00;;;;;;4070424;29;20491;-84
2021/08/31 09:40:30;;;;;;;7.70;6.40;;;24.90;96.60;;;;;;4069898;29;20850;-84
2021/08/31 09:42:35;;;;;;;9.80;7.00;;;25.00;95.50;;;;;;4073621;29;20478;-84
2021/08/31 09:44:38;;;;;;;5.90;5.30;;;25.10;94.60;;;;;;4078352;29;20566;-84
2021/08/31 09:46:54;;;;;;;6.80;6.13;;;25.20;93.60;;;;;;4079350;29;20530;-84
2021/08/31 09:48:57;;;;;;;7.63;6.43;;;25.20;93.90;;;;;;4070240;29;20486;-84
2021/08/31 09:51:00;;;;;;;6.40;5.80;;;25.30;92.90;;;;;;4083228;29;20553;-84
2021/08/31 09:53:05;;;;;;;7.20;6.40;;;25.30;92.20;;;;;;4075559;29;20521;-84
2021/08/31 09:55:21;;;;;;;6.73;5.70;;;25.30;90.90;;;;;;4078826;29;20922;-84
2021/08/31 09:57:29;;;;;;;11.13;6.27;;;25.00;90.50;;;;;;4074051;29;20490;-85
2021/08/31 09:59:32;;;;;;;7.50;6.63;;;24.90;93.20;;;;;;4076278;29;20846;-85
2021/08/31 10:01:35;;;;;;;9.10;6.63;;;24.90;93.60;;;;;;4081119;29;20491;-84
2021/08/31 10:03:40;;;;;;;8.27;7.37;;;25.00;94.30;;;;;;4074939;29;20978;-84
2021/08/31 10:05:45;;;;;;;6.50;5.90;;;25.20;94.20;;;;;;4073444;29;20578;-84
2021/08/31 10:07:48;;;;;;;6.03;5.43;;;25.40;93.50;;;;;;4075931;29;20489;-84
2021/08/31 10:09:52;;;;;;;7.03;6.33;;;25.40;91.10;;;;;;4076075;29;20503;-84
2021/08/31 10:11:56;;;;;;;7.47;6.63;;;25.40;91.40;;;;;;4068837;29;20479;-84
2021/08/31 10:14:02;;;;;;;8.60;6.50;;;25.60;91.80;;;;;;4077949;29;20479;-84
2021/08/31 10:16:06;;;;;;;7.33;6.17;;;25.60;91.80;;;;;;4076798;29;20474;-84
2021/08/31 10:18:09;;;;;;;9.70;7.77;;;25.90;92.30;;;;;;4080472;29;20470;-83
2021/08/31 10:20:18;;;;;;;9.73;7.23;;;26.20;91.00;;;;;;4073646;29;20509;-84
2021/08/31 10:22:31;;;;;;;8.43;6.70;;;26.00;90.40;;;;;;4076981;29;21088;-84
2021/08/31 10:24:35;;;;;;;11.80;6.23;;;25.40;90.50;;;;;;4068036;29;20550;-84
2021/08/31 10:26:40;;;;;;;36.17;28.87;;;25.10;92.20;;;;;;4068680;29;20587;-83
2021/08/31 10:28:45;;;;;;;70.80;59.60;;;25.20;92.90;;;;;;4068821;29;20483;-84
2021/08/31 10:30:48;;;;;;;34.73;28.83;;;25.00;92.80;;;;;;4074274;29;21298;-84
2021/08/31 10:32:56;;;;;;;15.00;13.50;;;25.00;93.20;;;;;;4068407;29;20499;-84
2021/08/31 10:35:00;;;;;;;9.60;8.60;;;25.00;93.70;;;;;;4071546;29;20505;-84
2021/08/31 10:37:05;;;;;;;6.90;6.20;;;24.80;93.50;;;;;;4068408;29;21230;-84
2021/08/31 10:39:08;;;;;;;7.17;6.47;;;24.70;93.10;;;;;;4068649;29;20523;-84
2021/08/31 10:41:42;;;;;;;7.60;6.80;;;24.60;94.30;;;;;;4081243;29;20577;-84
2021/08/31 10:43:53;;;;;;;7.60;6.80;;;24.70;94.20;;;;;;4079140;29;20480;-84
2021/08/31 10:45:59;;;;;;;7.17;6.40;;;24.60;94.80;;;;;;4079939;29;20476;-84
2021/08/31 10:48:35;;;;;;;6.33;5.70;;;24.70;94.50;;;;;;4073635;29;20471;-84
2021/08/31 10:50:38;;;;;;;8.10;7.30;;;25.10;94.80;;;;;;4068938;29;20474;-84
2021/08/31 10:52:43;;;;;;;7.47;5.80;;;25.70;90.80;;;;;;4070033;29;20493;-84
2021/08/31 10:54:48;;;;;;;6.80;6.17;;;26.00;90.30;;;;;;4080176;29;20558;-84
2021/08/31 10:56:51;;;;;;;6.60;6.00;;;26.50;90.40;;;;;;4076556;29;21192;-84
2021/08/31 10:58:57;;;;;;;6.87;6.17;;;26.40;88.10;;;;;;4080950;29;20582;-84
2021/08/31 11:01:00;;;;;;;6.70;6.10;;;26.00;89.40;;;;;;4074562;29;20804;-84
2021/08/31 11:03:04;;;;;;;6.57;5.73;;;25.80;89.80;;;;;;4081150;29;20501;-84
2021/08/31 11:05:27;;;;;;;6.87;6.17;;;25.40;90.40;;;;;;4076705;29;20486;-84
2021/08/31 11:07:30;;;;;;;6.87;6.17;;;25.30;91.50;;;;;;4070557;29;20494;-84
2021/08/31 11:09:33;;;;;;;6.53;5.90;;;25.80;90.30;;;;;;4067921;29;20606;-83
2021/08/31 11:11:37;;;;;;;6.53;5.93;;;26.40;90.20;;;;;;4075244;29;20497;-84
2021/08/31 11:13:39;;;;;;;6.90;6.20;;;27.00;89.20;;;;;;4074928;29;20556;-84
2021/08/31 11:15:46;;;;;;;7.10;5.60;;;27.40;86.30;;;;;;4078956;29;20506;-84
2021/08/31 11:17:51;;;;;;;7.70;6.90;;;27.70;83.80;;;;;;4076406;29;20481;-84
2021/08/31 11:20:19;;;;;;;6.80;6.20;;;28.20;83.60;;;;;;4067653;29;20470;-84
2021/08/31 11:22:23;;;;;;;6.20;5.70;;;28.60;82.30;;;;;;4067361;29;20466;-84
2021/08/31 11:24:27;;;;;;;6.67;6.07;;;28.60;80.40;;;;;;4067187;29;20484;-84
2021/08/31 11:26:30;;;;;;;6.83;6.23;;;28.40;78.80;;;;;;4070572;29;20953;-84
2021/08/31 11:28:33;;;;;;;5.97;5.47;;;27.80;81.20;;;;;;4067736;29;20553;-84
2021/08/31 11:30:49;;;;;;;6.33;5.83;;;27.30;83.10;;;;;;4077104;29;20520;-84
2021/08/31 11:33:12;;;;;;;7.00;5.80;;;26.80;84.60;;;;;;4067559;29;20497;-84
2021/08/31 11:35:15;;;;;;;6.50;5.90;;;26.30;86.10;;;;;;4075264;29;20510;-84
2021/08/31 11:37:18;;;;;;;7.77;5.80;;;26.30;87.50;;;;;;4067176;29;20614;-83
2021/08/31 11:39:26;;;;;;;7.30;6.60;;;27.00;86.00;;;;;;4074871;29;20676;-83
2021/08/31 11:41:45;;;;;;;6.53;5.73;;;27.80;86.00;;;;;;4079943;29;20480;-82
2021/08/31 11:43:49;;;;;;;7.53;5.80;;;28.10;81.70;;;;;;4078460;29;20556;-82
2021/08/31 11:45:57;;;;;;;6.23;5.63;;;27.60;81.10;;;;;;4079599;29;20473;-82
2021/08/31 11:48:00;;;;;;;8.77;5.70;;;27.30;82.60;;;;;;4071982;29;20484;-82
2021/08/31 11:50:03;;;;;;;5.97;5.30;;;28.00;82.60;;;;;;4077089;29;20474;-83
2021/08/31 11:52:08;;;;;;;6.40;5.80;;;28.40;80.80;;;;;;4079360;29;20493;-82
2021/08/31 11:54:13;;;;;;;6.30;5.70;;;29.00;78.20;;;;;;4074029;29;20474;-83
2021/08/31 11:56:21;;;;;;;7.70;6.90;;;29.60;77.90;;;;;;4066418;29;20521;-83
2021/08/31 11:58:25;;;;;;;7.10;6.50;;;30.30;75.90;;;;;;4068336;29;20572;-83
2021/08/31 12:00:43;;;;;;;6.43;5.30;;;30.50;74.80;;;;;;4066733;29;20501;-83
2021/08/31 12:02:47;;;;;;;5.77;5.23;;;30.50;76.00;;;;;;4079638;29;20480;-83
2021/08/31 12:05:05;;;;;;;8.03;6.03;;;29.80;76.00;;;;;;4069984;29;20517;-83
2021/08/31 12:07:10;;;;;;;6.33;5.70;;;29.00;76.40;;;;;;4066714;29;21121;-82
2021/08/31 12:09:16;;;;;;;5.67;5.17;;;28.60;79.30;;;;;;4066496;29;20463;-83
2021/08/31 12:11:27;;;;;;;6.20;5.37;;;29.00;78.20;;;;;;4076367;29;20877;-82
2021/08/31 12:13:31;;;;;;;6.35;5.75;;;29.80;78.80;;;;;;4075881;29;20528;-83
2021/08/31 12:15:35;;;;;;;6.82;6.13;;;30.50;74.50;;;;;;4076813;29;20545;-83
2021/08/31 12:17:42;;;;;;;6.50;6.00;;;30.60;74.40;;;;;;4082186;29;20501;-82
2021/08/31 12:19:49;;;;;;;6.13;5.60;;;31.10;73.30;;;;;;4072094;29;20487;-82
2021/08/31 12:22:09;;;;;;;6.32;5.72;;;31.30;72.90;;;;;;4066725;29;20466;-83
2021/08/31 12:24:13;;;;;;;6.25;5.65;;;31.60;73.10;;;;;;4066216;29;20499;-83
2021/08/31 12:26:37;;;;;;;6.15;5.65;;;30.70;72.60;;;;;;4066518;29;20847;-82
2021/08/31 12:29:02;;;;;;;6.80;6.20;;;29.60;75.80;;;;;;4067787;29;20478;-83
2021/08/31 12:31:12;;;;;;;6.13;5.63;;;28.90;77.80;;;;;;4068736;29;20503;-83
2021/08/31 12:33:24;;;;;;;7.70;6.10;;;28.30;78.30;;;;;;4072321;29;20533;-83
2021/08/31 12:35:32;;;;;;;6.30;5.77;;;28.60;80.00;;;;;;4074743;29;20549;-82
2021/08/31 12:37:36;;;;;;;6.60;6.00;;;29.40;76.70;;;;;;4072130;29;20824;-83
2021/08/31 12:39:44;;;;;;;6.93;6.23;;;29.20;75.60;;;;;;4066325;29;20513;-83
2021/08/31 12:41:47;;;;;;;7.50;6.80;;;28.60;77.60;;;;;;4079029;29;20479;-82
2021/08/31 12:43:52;;;;;;;7.03;6.43;;;28.10;78.60;;;;;;4081927;29;20557;-83
2021/08/31 12:45:58;;;;;;;6.53;5.93;;;28.60;79.30;;;;;;4081031;29;20469;-82
2021/08/31 12:48:04;;;;;;;7.80;6.53;;;29.30;78.20;;;;;;4076425;29;20473;-83
2021/08/31 12:50:09;;;;;;;7.07;6.37;;;30.40;76.80;;;;;;4077071;29;20569;-83
2021/08/31 12:52:17;;;;;;;6.13;5.53;;;31.00;74.40;;;;;;4085275;29;20484;-83
2021/08/31 12:54:26;;;;;;;6.85;6.20;;;30.90;74.10;;;;;;4068755;29;20466;-83
2021/08/31 12:56:29;;;;;;;6.93;6.22;;;30.60;74.30;;;;;;4076572;29;20531;-82
2021/08/31 12:58:33;;;;;;;7.47;6.77;;;29.70;75.70;;;;;;4077219;29;20476;-83
2021/08/31 13:00:36;;;;;;;9.50;6.73;;;29.00;77.00;;;;;;4068851;29;20467;-82
2021/08/31 13:02:40;;;;;;;7.50;6.80;;;28.20;79.20;;;;;;4073749;29;20471;-82
2021/08/31 13:04:45;;;;;;;7.47;6.80;;;28.70;79.20;;;;;;4073990;29;20561;-83
2021/08/31 13:06:53;;;;;;;9.07;6.53;;;29.90;78.00;;;;;;4070110;29;20501;-83
2021/08/31 13:08:58;;;;;;;7.22;5.80;;;31.20;76.80;;;;;;4069036;29;20519;-83
2021/08/31 13:11:01;;;;;;;6.57;5.80;;;31.80;73.90;;;;;;4074162;29;20473;-83
2021/08/31 13:13:04;;;;;;;6.68;6.13;;;32.10;72.90;;;;;;4081849;29;20501;-83
2021/08/31 13:15:08;;;;;;;6.30;5.70;;;32.50;72.10;;;;;;4082157;29;21162;-83
2021/08/31 13:17:12;;;;;;;6.22;5.65;;;32.80;70.50;;;;;;4068805;29;21018;-82
2021/08/31 13:19:16;;;;;;;6.75;6.07;;;33.30;68.60;;;;;;4069727;29;20309;-83
2021/08/31 13:21:21;;;;;;;5.43;4.85;;;33.30;69.50;;;;;;4076828;29;20257;-83
2021/08/31 13:23:24;;;;;;;6.70;5.75;;;33.70;68.50;;;;;;4068606;29;20250;-83
2021/08/31 13:25:29;;;;;;;8.07;6.20;;;33.60;66.50;;;;;;4068667;29;20659;-83
2021/08/31 13:27:32;;;;;;;6.07;5.57;;;32.50;67.90;;;;;;4074954;29;20624;-83
2021/08/31 13:29:36;;;;;;;12.85;11.65;;;32.00;69.90;;;;;;4068563;29;20210;-83
2021/08/31 13:31:40;;;;;;;26.85;24.25;;;32.00;70.20;;;;;;4081487;29;20309;-83
2021/08/31 13:33:43;;;;;;;33.03;29.75;;;31.40;70.60;;;;;;4080077;29;20233;-82
2021/08/31 13:35:46;;;;;;;32.70;29.63;;;30.50;72.10;;;;;;4079696;29;20224;-82
2021/08/31 13:37:50;;;;;;;11.80;10.70;;;29.60;73.10;;;;;;4068277;29;20569;-82
2021/08/31 13:39:53;;;;;;;7.25;6.38;;;28.80;74.80;;;;;;4083086;29;20504;-82
2021/08/31 13:41:57;;;;;;;9.30;7.83;;;28.10;76.10;;;;;;4087666;29;20521;-82
2021/08/31 13:44:02;;;;;;;7.33;6.73;;;27.70;77.70;;;;;;4086323;29;20560;-82
2021/08/31 13:46:05;;;;;;;7.27;6.67;;;27.20;78.60;;;;;;4078287;29;20473;-82
2021/08/31 13:48:08;;;;;;;7.17;6.57;;;27.10;80.00;;;;;;4084569;29;20477;-82
2021/08/31 13:50:12;;;;;;;6.80;6.17;;;27.90;80.40;;;;;;4089759;29;20778;-82
2021/08/31 13:52:15;;;;;;;7.20;6.50;;;29.10;77.80;;;;;;4087914;29;20477;-82
2021/08/31 13:54:18;;;;;;;7.10;6.40;;;30.10;75.30;;;;;;4086273;29;20569;-82
2021/08/31 13:56:21;;;;;;;7.03;6.40;;;30.30;73.80;;;;;;4075865;29;20593;-82
2021/08/31 13:58:25;;;;;;;7.07;6.47;;;29.50;74.40;;;;;;4078634;29;20466;-82
2021/08/31 14:00:28;;;;;;;6.63;5.93;;;28.80;74.40;;;;;;4068558;29;20557;-82
2021/08/31 14:02:31;;;;;;;6.63;5.90;;;27.90;76.20;;;;;;4068759;29;20474;-82
2021/08/31 14:04:35;;;;;;;6.27;5.67;;;28.00;76.50;;;;;;4070178;29;20478;-82
2021/08/31 14:06:37;;;;;;;7.93;7.13;;;27.80;76.60;;;;;;4068285;29;21020;-82
2021/08/31 14:08:41;;;;;;;10.63;7.50;;;27.40;77.90;;;;;;4068201;29;20509;-82
2021/08/31 14:10:44;;;;;;;13.47;6.97;;;27.00;80.30;;;;;;4078980;29;21202;-82
2021/08/31 14:12:47;;;;;;;9.07;7.20;;;26.70;81.40;;;;;;4081914;29;20502;-82
2021/08/31 14:14:51;;;;;;;7.10;6.40;;;26.50;82.50;;;;;;4077392;29;20526;-82
2021/08/31 14:16:54;;;;;;;7.43;6.47;;;27.20;81.90;;;;;;4080896;29;20585;-82
2021/08/31 14:18:57;;;;;;;6.93;6.23;;;28.20;80.60;;;;;;4075225;29;20483;-82
2021/08/31 14:21:00;;;;;;;6.43;5.83;;;29.30;78.80;;;;;;4068373;29;21026;-82
2021/08/31 14:23:04;;;;;;;5.73;5.23;;;30.10;77.50;;;;;;4077435;29;20611;-82
2021/08/31 14:25:08;;;;;;;6.80;6.20;;;30.60;75.00;;;;;;4068142;29;20462;-82
2021/08/31 14:27:11;;;;;;;6.72;6.10;;;31.20;74.00;;;;;;4076542;29;21005;-82
2021/08/31 14:29:15;;;;;;;8.05;6.43;;;31.80;71.70;;;;;;4067745;29;20570;-83
2021/08/31 14:31:19;;;;;;;7.03;6.43;;;31.80;71.30;;;;;;4067880;29;20476;-82
2021/08/31 14:33:22;;;;;;;7.15;6.55;;;31.50;71.00;;;;;;4067687;29;20815;-82
2021/08/31 14:35:25;;;;;;;8.00;7.28;;;30.90;72.50;;;;;;4067348;29;20237;-82
2021/08/31 14:37:28;;;;;;;7.20;6.53;;;30.50;73.40;;;;;;4067858;29;20577;-82
2021/08/31 14:39:31;;;;;;;7.28;6.57;;;30.20;76.10;;;;;;4067398;29;20518;-82
2021/08/31 14:41:34;;;;;;;6.78;6.18;;;30.50;75.70;;;;;;4067788;29;20489;-82
2021/08/31 14:43:37;;;;;;;6.65;6.05;;;31.10;75.10;;;;;;4076317;29;20481;-82
2021/08/31 14:45:40;;;;;;;5.90;5.28;;;32.00;71.20;;;;;;4075080;29;20679;-82
2021/08/31 14:47:45;;;;;;;6.40;5.80;;;32.30;69.60;;;;;;4070224;29;20252;-83
2021/08/31 14:49:48;;;;;;;6.97;6.30;;;32.20;70.00;;;;;;4073266;29;20277;-83
2021/08/31 14:51:52;;;;;;;7.10;6.50;;;31.90;70.10;;;;;;4074008;29;20230;-82
2021/08/31 14:53:55;;;;;;;6.30;5.70;;;32.10;70.60;;;;;;4072790;29;20247;-83
2021/08/31 14:55:58;;;;;;;6.47;5.88;;;32.30;69.90;;;;;;4074261;29;20207;-82
2021/08/31 14:58:02;;;;;;;21.95;19.63;;;32.80;69.00;;;;;;4076186;29;20306;-83
2021/08/31 15:00:07;;;;;;;32.88;29.92;;;32.80;68.00;;;;;;4067037;29;20825;-83
2021/08/31 15:02:10;;;;;;;26.13;23.85;;;32.90;68.40;;;;;;4067996;29;20228;-83
2021/08/31 15:04:15;;;;;;;11.10;10.20;;;33.10;67.10;;;;;;4067304;29;20273;-83
2021/08/31 15:06:18;;;;;;;8.10;7.45;;;33.30;66.30;;;;;;4068010;29;20329;-83
2021/08/31 15:08:21;;;;;;;7.72;7.13;;;33.50;65.70;;;;;;4067767;29;20234;-83
2021/08/31 15:10:24;;;;;;;7.82;6.47;;;33.50;66.00;;;;;;4067802;29;20232;-83
2021/08/31 15:12:27;;;;;;;7.72;7.03;;;33.40;65.60;;;;;;4081302;29;20218;-83
2021/08/31 15:14:30;;;;;;;7.32;6.78;;;32.60;66.30;;;;;;4075004;29;20240;-83
2021/08/31 15:16:34;;;;;;;8.02;7.32;;;32.30;68.30;;;;;;4078846;29;20730;-82
2021/08/31 15:18:37;;;;;;;7.43;6.70;;;32.30;68.60;;;;;;4075528;29;20253;-83
2021/08/31 15:20:41;;;;;;;6.00;5.50;;;32.20;67.70;;;;;;4067880;29;20238;-83
2021/08/31 15:22:44;;;;;;;6.68;6.07;;;32.10;66.80;;;;;;4068387;29;20219;-83
2021/08/31 15:24:47;;;;;;;6.60;6.00;;;31.90;67.30;;;;;;4068142;29;20221;-83
2021/08/31 15:26:50;;;;;;;6.45;5.85;;;31.50;67.80;;;;;;4069679;29;20282;-83
2021/08/31 15:28:56;;;;;;;6.43;5.90;;;30.60;69.00;;;;;;4079195;29;20280;-82
2021/08/31 15:30:59;;;;;;;6.80;6.20;;;29.70;70.40;;;;;;4080153;29;20245;-82
2021/08/31 15:33:03;;;;;;;7.03;6.43;;;28.90;72.30;;;;;;4077355;29;20957;-82
2021/08/31 15:35:07;;;;;;;6.47;5.88;;;28.30;74.10;;;;;;4075194;29;20532;-81
2021/08/31 15:37:12;;;;;;;7.35;6.65;;;28.10;75.80;;;;;;4073418;29;20989;-82
2021/08/31 15:39:16;;;;;;;8.45;6.60;;;27.80;76.90;;;;;;4075130;29;20962;-82
2021/08/31 15:41:22;;;;;;;7.27;6.63;;;27.50;77.20;;;;;;4074714;29;20473;-82
2021/08/31 15:43:25;;;;;;;6.50;5.90;;;27.20;78.10;;;;;;4085658;29;20465;-82
2021/08/31 15:45:29;;;;;;;6.40;5.90;;;27.00;79.10;;;;;;4077016;29;20461;-81
2021/08/31 15:47:32;;;;;;;7.07;6.33;;;26.70;79.30;;;;;;4078254;29;20570;-82
2021/08/31 15:49:36;;;;;;;7.80;6.03;;;26.50;79.90;;;;;;4079736;29;20504;-83
2021/08/31 15:51:39;;;;;;;6.90;6.30;;;26.30;80.70;;;;;;4079575;29;20469;-82
2021/08/31 15:53:44;;;;;;;7.00;6.40;;;26.20;81.10;;;;;;4080397;29;21443;-83
2021/08/31 15:55:47;;;;;;;9.43;6.27;;;26.00;81.40;;;;;;4078204;29;20486;-82
2021/08/31 15:57:50;;;;;;;7.40;6.63;;;25.80;82.00;;;;;;4076919;29;20914;-82
2021/08/31 15:59:53;;;;;;;6.60;6.00;;;25.60;83.10;;;;;;4081768;29;20533;-82
2021/08/31 16:01:56;;;;;;;9.07;6.90;;;25.40;84.40;;;;;;4076639;29;20474;-82
2021/08/31 16:04:00;;;;;;;7.20;6.40;;;25.40;84.80;;;;;;4076521;29;20557;-81
2021/08/31 16:06:04;;;;;;;7.33;6.63;;;25.40;84.60;;;;;;4076622;29;20585;-84
2021/08/31 16:08:07;;;;;;;9.60;6.80;;;25.40;85.20;;;;;;4074525;29;20842;-84
2021/08/31 16:10:12;;;;;;;8.00;7.30;;;25.50;86.10;;;;;;4073863;29;20477;-84
2021/08/31 16:12:16;;;;;;;7.30;6.60;;;25.50;86.40;;;;;;4073850;29;20474;-84
2021/08/31 16:14:19;;;;;;;8.10;6.43;;;25.40;87.00;;;;;;4072399;29;20521;-84
2021/08/31 16:16:25;;;;;;;7.93;7.13;;;25.20;85.70;;;;;;4075948;29;20544;-84
2021/08/31 16:18:28;;;;;;;7.57;6.87;;;25.00;85.20;;;;;;4080083;29;20474;-84
2021/08/31 16:20:31;;;;;;;9.53;6.60;;;24.90;85.80;;;;;;4073450;29;20466;-84
2021/08/31 16:22:35;;;;;;;6.87;6.00;;;24.80;86.20;;;;;;4078331;29;20986;-84
2021/08/31 16:24:40;;;;;;;9.40;7.40;;;24.60;86.00;;;;;;4077823;29;20506;-84
2021/08/31 16:26:45;;;;;;;51.10;43.60;;;24.50;87.00;;;;;;4081581;29;20545;-83
2021/08/31 16:28:48;;;;;;;18.00;16.10;;;24.40;87.70;;;;;;4078219;29;20503;-83
2021/08/31 16:30:54;;;;;;;14.17;12.63;;;24.40;88.10;;;;;;4073870;29;20874;-83
2021/08/31 16:32:59;;;;;;;8.13;6.83;;;24.30;87.60;;;;;;4077867;29;20568;-83
2021/08/31 16:35:02;;;;;;;8.03;7.17;;;24.20;87.50;;;;;;4079197;29;20927;-83
2021/08/31 16:37:05;;;;;;;7.20;6.50;;;24.10;88.00;;;;;;4079255;29;20497;-83
2021/08/31 16:39:09;;;;;;;8.70;7.30;;;24.00;88.70;;;;;;4077802;29;20471;-83
2021/08/31 16:41:12;;;;;;;7.20;6.50;;;24.10;89.30;;;;;;4085265;29;20478;-83
2021/08/31 16:43:17;;;;;;;7.70;6.47;;;24.00;89.10;;;;;;4079478;29;20470;-82
2021/08/31 16:45:20;;;;;;;6.90;6.10;;;24.00;88.70;;;;;;4080137;29;20490;-83
2021/08/31 16:47:23;;;;;;;7.50;6.80;;;23.90;88.20;;;;;;4074490;29;20490;-82
2021/08/31 16:49:26;;;;;;;7.67;6.67;;;23.80;88.40;;;;;;4080234;29;20470;-83
2021/08/31 16:51:30;;;;;;;8.57;7.30;;;23.80;89.20;;;;;;4072363;29;20482;-83
2021/08/31 16:53:34;;;;;;;7.13;6.43;;;23.80;90.00;;;;;;4076027;29;20470;-83
2021/08/31 16:55:38;;;;;;;7.70;6.90;;;23.70;90.00;;;;;;4078945;29;20493;-83
2021/08/31 16:57:42;;;;;;;6.80;6.10;;;23.60;90.10;;;;;;4074637;29;20498;-83
2021/08/31 16:59:46;;;;;;;7.57;6.87;;;23.60;89.90;;;;;;4077514;29;20574;-83
2021/08/31 17:01:51;;;;;;;10.63;7.77;;;23.50;89.50;;;;;;4078051;29;20475;-82
2021/08/31 17:03:55;;;;;;;7.57;6.43;;;23.50;89.20;;;;;;4072200;29;20854;-82
2021/08/31 17:05:59;;;;;;;6.53;5.83;;;23.40;89.60;;;;;;4072248;29;20502;-82
2021/08/31 17:08:02;;;;;;;7.37;6.67;;;23.30;89.80;;;;;;4070374;29;20497;-82
2021/08/31 17:10:06;;;;;;;10.17;5.97;;;23.20;90.10;;;;;;4075315;29;20521;-82
2021/08/31 17:12:10;;;;;;;7.20;6.03;;;23.20;90.60;;;;;;4070158;29;20471;-81
2021/08/31 17:14:16;;;;;;;7.27;6.57;;;23.20;91.40;;;;;;4077404;29;20554;-81
2021/08/31 17:16:24;;;;;;;7.03;5.97;;;23.10;92.10;;;;;;4075970;29;20552;-82
2021/08/31 17:18:27;;;;;;;7.27;6.57;;;23.00;92.00;;;;;;4076174;29;20474;-83
2021/08/31 17:20:30;;;;;;;10.17;7.23;;;23.00;92.10;;;;;;4088486;29;20480;-82
2021/08/31 17:22:33;;;;;;;7.60;6.50;;;22.90;92.50;;;;;;4087910;29;20462;-82
2021/08/31 17:24:37;;;;;;;7.37;5.83;;;22.90;92.60;;;;;;4083052;29;20509;-82
2021/08/31 17:26:42;;;;;;;7.43;6.63;;;22.80;93.00;;;;;;4083123;29;20494;-82
2021/08/31 17:28:46;;;;;;;7.90;6.57;;;22.70;93.40;;;;;;4080752;29;20570;-82
2021/08/31 17:30:49;;;;;;;8.70;6.30;;;22.70;93.70;;;;;;4088504;29;20898;-82
2021/08/31 17:32:54;;;;;;;8.73;6.80;;;22.60;94.10;;;;;;4082950;29;20500;-82
2021/08/31 17:34:57;;;;;;;8.30;7.50;;;22.50;94.80;;;;;;4080328;29;20547;-82
2021/08/31 17:37:00;;;;;;;7.60;6.80;;;22.50;95.00;;;;;;4081544;29;20513;-82
2021/08/31 17:39:03;;;;;;;9.83;7.20;;;22.40;95.60;;;;;;4082568;28;20481;-81
2021/08/31 17:41:06;;;;;;;7.83;6.70;;;22.40;95.70;;;;;;4083121;29;21302;-82